Time;durP1;ratioP1;P1;durP2;ratioP2;P2;SDS_P1;SDS_P2;PMS_P1;PMS_P2;Temp;Humidity;BMP_temperature;BMP_pressure;BME280_temperature;BME280_humidity;BME280_pressure;Samples;Min_cycle;Max_cycle;Signal;HPM_P1;HPM_P2
2022/04/11 00:00:25;;;;;;;4.10;2.78;;;4.60;58.90;;;;;;5087365;28;20044;-62
2022/04/11 00:02:51;;;;;;;5.30;3.05;;;4.40;58.90;;;;;;5076182;28;20047;-62
2022/04/11 00:05:17;;;;;;;5.63;3.30;;;4.40;58.90;;;;;;5086790;28;20032;-60
2022/04/11 00:07:42;;;;;;;5.47;2.75;;;4.30;58.90;;;;;;5061385;28;20030;-61
2022/04/11 00:10:08;;;;;;;4.07;2.40;;;4.30;58.90;;;;;;5076273;28;20516;-62
2022/04/11 00:12:36;;;;;;;4.72;2.53;;;4.30;58.80;;;;;;5077422;28;20039;-61
2022/04/11 00:15:06;;;;;;;2.75;2.42;;;4.30;58.90;;;;;;5078873;28;20047;-61
2022/04/11 00:17:32;;;;;;;4.28;2.70;;;4.30;59.10;;;;;;5086998;28;20032;-61
2022/04/11 00:19:58;;;;;;;5.82;2.70;;;4.30;58.90;;;;;;5079718;28;20029;-62
2022/04/11 00:22:23;;;;;;;4.35;2.83;;;4.50;59.00;;;;;;5066264;28;20037;-61
2022/04/11 00:24:50;;;;;;;4.60;2.83;;;4.50;59.20;;;;;;5066581;28;20025;-61
2022/04/11 00:27:16;;;;;;;4.80;3.00;;;4.20;59.20;;;;;;5050137;28;20056;-61
2022/04/11 00:29:41;;;;;;;2.90;2.58;;;4.10;59.20;;;;;;5079786;28;20029;-62
2022/04/11 00:32:08;;;;;;;5.57;3.03;;;4.20;59.30;;;;;;5063630;28;20056;-61
2022/04/11 00:34:33;;;;;;;3.78;2.72;;;4.10;59.30;;;;;;5080108;28;20025;-61
2022/04/11 00:36:59;;;;;;;9.10;3.00;;;4.10;59.40;;;;;;5067604;28;20131;-62
2022/04/11 00:39:25;;;;;;;5.63;2.90;;;4.10;59.40;;;;;;5085388;28;20025;-61
2022/04/11 00:41:50;;;;;;;3.92;2.90;;;4.10;59.50;;;;;;5066738;28;20041;-61
2022/04/11 00:44:16;;;;;;;6.90;2.65;;;4.10;59.50;;;;;;5082770;28;20050;-62
2022/04/11 00:46:42;;;;;;;4.57;2.53;;;4.20;59.60;;;;;;5072396;28;20025;-61
2022/04/11 00:49:08;;;;;;;4.60;2.78;;;4.00;59.60;;;;;;5072055;28;20028;-61
2022/04/11 00:51:34;;;;;;;4.43;2.55;;;4.00;59.80;;;;;;5060369;28;20030;-61
2022/04/11 00:54:01;;;;;;;5.97;2.80;;;4.00;59.70;;;;;;5086514;28;20115;-61
2022/04/11 00:56:28;;;;;;;3.40;2.42;;;4.00;59.50;;;;;;5061345;28;20184;-60
2022/04/11 00:58:57;;;;;;;6.20;2.25;;;4.00;59.30;;;;;;5086944;28;20088;-62
2022/04/11 01:01:23;;;;;;;6.30;2.80;;;4.00;59.30;;;;;;5077507;28;20048;-62
2022/04/11 01:03:49;;;;;;;4.40;3.17;;;3.90;59.50;;;;;;5085718;28;20028;-61
2022/04/11 01:06:15;;;;;;;5.80;3.08;;;3.90;59.70;;;;;;5070599;28;20047;-62
2022/04/11 01:08:41;;;;;;;4.72;2.78;;;3.90;59.60;;;;;;5064582;28;20033;-62
2022/04/11 01:11:07;;;;;;;4.75;3.17;;;3.90;59.60;;;;;;5069123;28;20048;-62
2022/04/11 01:13:33;;;;;;;6.22;2.90;;;3.90;59.70;;;;;;5061823;28;20397;-61
2022/04/11 01:16:00;;;;;;;5.63;2.88;;;3.90;59.70;;;;;;5066092;28;20089;-61
2022/04/11 01:18:26;;;;;;;6.10;2.55;;;3.90;59.70;;;;;;5067002;28;20025;-61
2022/04/11 01:20:53;;;;;;;2.83;2.38;;;3.90;59.60;;;;;;5085479;28;20148;-61
2022/04/11 01:23:19;;;;;;;5.72;2.80;;;3.90;59.70;;;;;;5053562;28;20048;-61
2022/04/11 01:25:52;;;;;;;5.22;2.55;;;3.90;59.40;;;;;;5065090;28;20020;-61
2022/04/11 01:28:20;;;;;;;3.70;2.60;;;3.90;59.60;;;;;;5060967;28;20034;-61
2022/04/11 01:30:46;;;;;;;6.13;2.78;;;3.90;59.40;;;;;;5064807;28;20028;-61
2022/04/11 01:33:17;;;;;;;5.65;2.83;;;3.90;59.50;;;;;;5076126;28;20025;-62
2022/04/11 01:35:43;;;;;;;2.97;2.53;;;3.80;59.70;;;;;;5065073;28;20033;-61
2022/04/11 01:38:09;;;;;;;4.90;2.95;;;3.80;59.50;;;;;;5071869;28;20148;-61
2022/04/11 01:40:34;;;;;;;5.63;3.38;;;3.80;59.50;;;;;;5058676;28;20056;-60
2022/04/11 01:43:00;;;;;;;4.53;2.60;;;3.80;59.60;;;;;;5071070;28;20036;-61
2022/04/11 01:45:26;;;;;;;4.82;2.80;;;4.10;59.80;;;;;;5083042;28;20047;-61
2022/04/11 01:47:51;;;;;;;5.85;2.70;;;3.70;59.60;;;;;;5080583;28;20028;-61
2022/04/11 01:50:17;;;;;;;5.30;2.80;;;4.00;59.80;;;;;;5081953;28;20068;-61
2022/04/11 01:52:43;;;;;;;7.97;2.42;;;3.90;59.90;;;;;;5077299;28;20025;-61
2022/04/11 01:55:09;;;;;;;4.40;2.65;;;3.70;59.70;;;;;;5077542;28;20085;-62
2022/04/11 01:57:34;;;;;;;3.88;2.53;;;3.70;59.60;;;;;;5068607;28;20036;-61
2022/04/11 02:00:00;;;;;;;3.35;2.47;;;3.70;59.50;;;;;;5082881;28;20043;-61
2022/04/11 02:02:26;;;;;;;4.55;2.63;;;3.70;59.70;;;;;;5058531;28;20064;-62
2022/04/11 02:04:51;;;;;;;3.90;2.75;;;3.70;59.90;;;;;;5067668;28;20553;-61
2022/04/11 02:07:17;;;;;;;4.70;2.85;;;3.70;59.90;;;;;;5084440;28;20040;-61
2022/04/11 02:09:42;;;;;;;5.05;2.72;;;3.70;60.00;;;;;;5076449;28;20054;-61
2022/04/11 02:12:08;;;;;;;3.28;2.80;;;3.70;60.00;;;;;;5066513;28;20055;-63
2022/04/11 02:14:34;;;;;;;3.63;2.70;;;3.60;59.90;;;;;;5083528;28;20028;-61
2022/04/11 02:17:00;;;;;;;4.45;2.90;;;3.60;59.80;;;;;;5065670;28;20036;-62
2022/04/11 02:19:25;;;;;;;7.07;2.80;;;3.60;59.70;;;;;;5075071;28;20028;-62
2022/04/11 02:21:51;;;;;;;5.63;3.00;;;3.60;59.80;;;;;;5049638;28;20038;-61
2022/04/11 02:24:16;;;;;;;5.10;2.85;;;3.60;59.90;;;;;;5075987;28;20457;-61
2022/04/11 02:26:42;;;;;;;5.50;3.28;;;3.80;59.90;;;;;;5068027;28;20040;-61
2022/04/11 02:29:08;;;;;;;8.80;3.17;;;3.60;59.90;;;;;;5077799;28;20044;-62
2022/04/11 02:31:33;;;;;;;5.07;3.08;;;3.60;60.20;;;;;;5069495;28;20055;-62
2022/04/11 02:33:59;;;;;;;6.90;3.53;;;3.60;60.30;;;;;;5075295;28;20036;-62
2022/04/11 02:36:25;;;;;;;5.97;3.33;;;3.50;60.40;;;;;;5055127;28;20025;-61
2022/04/11 02:38:51;;;;;;;8.70;3.45;;;3.50;60.40;;;;;;5075153;28;20485;-61
2022/04/11 02:41:17;;;;;;;5.60;3.42;;;3.60;60.50;;;;;;5072410;28;20041;-62
2022/04/11 02:43:43;;;;;;;5.18;3.10;;;3.60;60.60;;;;;;5088434;28;20049;-61
2022/04/11 02:46:09;;;;;;;6.82;3.70;;;3.50;60.50;;;;;;5077637;28;20036;-62
2022/04/11 02:48:36;;;;;;;4.65;2.92;;;3.60;60.60;;;;;;5088070;28;20028;-63
2022/04/11 02:51:02;;;;;;;4.30;3.00;;;3.70;60.60;;;;;;5070293;28;20131;-61
2022/04/11 02:53:27;;;;;;;5.60;3.40;;;3.70;60.40;;;;;;5088492;28;20493;-61
2022/04/11 02:55:53;;;;;;;6.53;3.15;;;3.60;60.50;;;;;;5077335;28;20042;-61
2022/04/11 02:58:18;;;;;;;3.83;2.75;;;3.50;60.40;;;;;;5078894;28;20457;-61
2022/04/11 03:00:44;;;;;;;7.70;2.95;;;3.60;60.40;;;;;;5074130;28;20490;-62
2022/04/11 03:03:12;;;;;;;5.72;3.45;;;3.70;60.40;;;;;;5069602;28;20397;-61
2022/04/11 03:05:38;;;;;;;5.40;3.53;;;3.60;60.50;;;;;;5066302;28;20031;-62
2022/04/11 03:08:04;;;;;;;9.10;3.95;;;3.60;60.70;;;;;;5088268;28;20033;-62
2022/04/11 03:10:30;;;;;;;8.35;3.25;;;3.60;60.60;;;;;;5067836;28;20032;-61
2022/04/11 03:12:56;;;;;;;3.47;3.05;;;3.60;60.70;;;;;;5087965;28;20025;-62
2022/04/11 03:15:21;;;;;;;7.20;3.30;;;3.60;60.80;;;;;;5054528;28;20021;-61
2022/04/11 03:17:47;;;;;;;9.65;3.65;;;3.60;60.90;;;;;;5088275;28;20112;-61
2022/04/11 03:20:13;;;;;;;6.45;4.07;;;3.60;60.90;;;;;;5071211;28;20053;-60
2022/04/11 03:22:39;;;;;;;7.43;3.45;;;3.60;61.00;;;;;;5068498;28;20032;-61
2022/04/11 03:25:05;;;;;;;5.18;3.58;;;3.60;61.10;;;;;;5071389;28;20021;-61
2022/04/11 03:27:31;;;;;;;6.30;3.38;;;3.60;61.00;;;;;;5087656;28;20513;-61
2022/04/11 03:29:57;;;;;;;5.80;3.80;;;3.70;60.80;;;;;;5083423;28;20171;-61
2022/04/11 03:32:22;;;;;;;4.97;3.75;;;3.60;60.60;;;;;;5069969;28;20044;-61
2022/04/11 03:34:51;;;;;;;8.23;3.97;;;3.60;60.60;;;;;;5076271;28;20025;-61
2022/04/11 03:37:17;;;;;;;6.15;3.65;;;3.60;61.00;;;;;;5075512;28;20543;-61
2022/04/11 03:39:42;;;;;;;4.95;3.67;;;3.60;61.10;;;;;;5076753;28;20025;-61
2022/04/11 03:42:08;;;;;;;7.13;3.72;;;3.70;61.20;;;;;;5075187;28;20063;-62
2022/04/11 03:44:35;;;;;;;5.32;3.80;;;3.60;61.30;;;;;;5072247;28;20033;-62
2022/04/11 03:47:01;;;;;;;6.93;4.00;;;3.90;61.50;;;;;;5067554;28;20065;-61
2022/04/11 03:49:27;;;;;;;7.28;3.95;;;3.60;61.30;;;;;;5069820;28;20028;-61
2022/04/11 03:51:53;;;;;;;5.60;3.60;;;3.90;61.40;;;;;;5071378;28;20025;-61
2022/04/11 03:54:18;;;;;;;10.50;3.90;;;3.70;61.20;;;;;;5086761;28;20020;-61
2022/04/11 03:56:44;;;;;;;5.32;4.10;;;3.70;61.20;;;;;;5068208;28;20029;-61
2022/04/11 03:59:10;;;;;;;5.57;3.47;;;3.70;61.10;;;;;;5087179;28;20039;-61
2022/04/11 04:01:35;;;;;;;5.25;3.92;;;3.70;61.20;;;;;;5074056;28;20048;-62
2022/04/11 04:04:01;;;;;;;5.22;3.67;;;3.80;61.40;;;;;;5087268;28;20035;-61
2022/04/11 04:06:27;;;;;;;5.47;3.53;;;3.70;61.40;;;;;;5075491;28;20147;-61
2022/04/11 04:08:52;;;;;;;5.88;3.88;;;3.70;61.30;;;;;;5065946;28;20025;-61
2022/04/11 04:11:18;;;;;;;6.43;3.75;;;3.70;61.20;;;;;;5062453;28;20393;-61
2022/04/11 04:13:44;;;;;;;5.47;3.83;;;3.70;61.20;;;;;;5069457;28;20099;-61
2022/04/11 04:16:09;;;;;;;5.15;3.67;;;3.70;61.30;;;;;;5064543;28;20028;-61
2022/04/11 04:18:35;;;;;;;8.35;3.97;;;3.80;61.30;;;;;;5067282;28;20025;-62
2022/04/11 04:21:01;;;;;;;5.47;3.90;;;3.70;61.20;;;;;;5069404;28;20033;-62
2022/04/11 04:23:26;;;;;;;6.07;3.83;;;3.70;61.30;;;;;;5069131;28;20092;-62
2022/04/11 04:25:52;;;;;;;6.32;3.92;;;3.70;61.40;;;;;;5058641;28;20032;-61
2022/04/11 04:28:18;;;;;;;6.95;4.82;;;3.70;61.40;;;;;;5064161;28;20091;-61
2022/04/11 04:30:45;;;;;;;11.27;4.72;;;3.70;61.40;;;;;;5062867;28;20045;-61
2022/04/11 04:33:12;;;;;;;6.97;4.82;;;3.70;61.40;;;;;;5071856;28;20017;-61
2022/04/11 04:35:38;;;;;;;7.93;4.70;;;3.70;61.40;;;;;;5075158;28;20549;-61
2022/04/11 04:38:04;;;;;;;12.32;5.22;;;3.70;61.40;;;;;;5077957;28;20060;-61
2022/04/11 04:40:29;;;;;;;7.75;4.28;;;3.70;61.40;;;;;;5060569;28;20032;-61
2022/04/11 04:42:55;;;;;;;7.65;4.25;;;3.70;61.50;;;;;;5043349;28;20029;-61
2022/04/11 04:45:21;;;;;;;11.10;4.25;;;3.90;61.60;;;;;;5078515;28;20116;-61
2022/04/11 04:47:46;;;;;;;6.32;4.10;;;3.90;61.60;;;;;;5070263;28;20486;-61
2022/04/11 04:50:12;;;;;;;7.75;4.63;;;3.70;61.50;;;;;;4941936;28;20040;-61
2022/04/11 04:52:38;;;;;;;10.02;4.50;;;3.90;61.70;;;;;;5060804;28;20478;-61
2022/04/11 04:55:05;;;;;;;7.82;4.75;;;3.70;61.60;;;;;;5081141;28;20706;-61
2022/04/11 04:57:31;;;;;;;10.77;4.68;;;3.70;61.50;;;;;;5063708;28;20084;-61
2022/04/11 04:59:56;;;;;;;7.22;4.43;;;3.70;61.50;;;;;;5085133;28;20025;-61
2022/04/11 05:02:22;;;;;;;9.20;4.10;;;3.80;61.70;;;;;;5047615;28;20512;-61
2022/04/11 05:04:47;;;;;;;6.85;4.10;;;3.70;61.60;;;;;;5063307;28;20025;-61
2022/04/11 05:07:13;;;;;;;5.85;4.20;;;3.70;61.60;;;;;;5069251;28;20033;-61
2022/04/11 05:09:39;;;;;;;7.57;4.30;;;3.70;61.60;;;;;;5054228;28;20043;-60
2022/04/11 05:12:05;;;;;;;8.43;4.00;;;3.70;61.70;;;;;;5051138;28;20025;-61
2022/04/11 05:14:31;;;;;;;6.00;3.67;;;3.70;61.70;;;;;;5068117;28;20104;-61
2022/04/11 05:16:56;;;;;;;8.13;3.85;;;3.70;61.80;;;;;;5070417;28;20099;-61
2022/04/11 05:19:22;;;;;;;5.53;3.50;;;3.70;62.00;;;;;;5066014;28;20382;-61
2022/04/11 05:21:48;;;;;;;8.18;4.20;;;3.70;62.10;;;;;;5058726;28;20116;-61
2022/04/11 05:24:14;;;;;;;5.75;3.63;;;3.80;62.10;;;;;;5069529;28;20046;-61
2022/04/11 05:26:39;;;;;;;4.95;3.33;;;3.80;62.20;;;;;;5066745;28;20040;-61
2022/04/11 05:29:05;;;;;;;6.45;3.78;;;3.80;62.10;;;;;;5064907;28;20032;-61
2022/04/11 05:31:31;;;;;;;5.57;3.60;;;3.80;62.00;;;;;;5075529;28;20315;-61
2022/04/11 05:33:56;;;;;;;7.68;3.83;;;3.80;62.10;;;;;;5070320;28;20152;-61
2022/04/11 05:36:22;;;;;;;10.57;3.80;;;3.90;62.20;;;;;;5074809;28;20378;-61
2022/04/11 05:38:48;;;;;;;5.65;3.70;;;3.90;62.10;;;;;;5062232;28;20055;-61
2022/04/11 05:41:14;;;;;;;9.25;4.70;;;4.00;62.10;;;;;;5064746;28;20120;-60
2022/04/11 05:43:40;;;;;;;11.82;4.55;;;4.30;62.40;;;;;;5060705;28;20037;-61
2022/04/11 05:46:06;;;;;;;8.05;4.90;;;4.10;62.30;;;;;;5049921;28;20032;-61
2022/04/11 05:48:35;;;;;;;9.18;5.35;;;4.10;62.50;;;;;;5048855;28;20021;-61
2022/04/11 05:51:01;;;;;;;11.38;5.47;;;4.20;62.70;;;;;;5050168;28;20552;-61
2022/04/11 05:53:27;;;;;;;9.88;5.47;;;4.30;62.80;;;;;;5050680;28;20033;-61
2022/04/11 05:55:53;;;;;;;10.52;5.45;;;4.40;62.80;;;;;;5049551;28;20034;-61
2022/04/11 05:58:18;;;;;;;15.57;5.68;;;4.50;62.90;;;;;;5053434;28;20025;-62
2022/04/11 06:00:44;;;;;;;9.30;5.32;;;4.60;62.90;;;;;;5049113;28;20486;-61
2022/04/11 06:03:09;;;;;;;6.95;4.93;;;4.70;62.90;;;;;;5049132;28;20483;-61
2022/04/11 06:05:39;;;;;;;11.52;6.35;;;4.80;62.90;;;;;;5046900;28;20033;-62
2022/04/11 06:08:05;;;;;;;11.45;7.28;;;4.90;63.00;;;;;;5049647;28;20109;-61
2022/04/11 06:10:31;;;;;;;12.48;7.90;;;5.00;62.90;;;;;;5047375;28;20056;-61
2022/04/11 06:12:57;;;;;;;10.35;7.00;;;5.20;62.60;;;;;;5057326;28;20044;-62
2022/04/11 06:15:23;;;;;;;12.10;5.90;;;5.30;62.30;;;;;;5066510;28;20029;-61
2022/04/11 06:17:48;;;;;;;14.68;6.25;;;5.40;62.10;;;;;;5073150;28;20378;-62
2022/04/11 06:20:14;;;;;;;11.52;5.32;;;5.40;61.90;;;;;;5072580;28;20071;-62
2022/04/11 06:22:40;;;;;;;11.35;5.28;;;5.50;61.80;;;;;;5065514;28;20033;-61
2022/04/11 06:25:08;;;;;;;8.30;4.82;;;5.50;61.70;;;;;;5059949;28;20904;-61
2022/04/11 06:27:37;;;;;;;10.95;5.20;;;5.60;61.70;;;;;;5061745;28;20029;-61
2022/04/11 06:30:04;;;;;;;8.77;4.90;;;5.60;61.60;;;;;;5071589;28;20424;-62
2022/04/11 06:32:32;;;;;;;11.77;5.68;;;5.60;61.60;;;;;;5061051;28;20029;-62
2022/04/11 06:34:58;;;;;;;17.52;6.68;;;5.60;61.60;;;;;;5065117;28;20032;-62
2022/04/11 06:37:24;;;;;;;10.80;6.38;;;5.70;61.60;;;;;;5064489;28;20083;-61
2022/04/11 06:39:51;;;;;;;9.98;5.97;;;5.70;61.50;;;;;;5078359;28;20025;-61
2022/04/11 06:42:17;;;;;;;10.25;5.03;;;5.70;61.50;;;;;;5060891;28;20547;-62
2022/04/11 06:44:42;;;;;;;14.40;5.70;;;5.70;61.50;;;;;;5057398;28;20093;-61
2022/04/11 06:47:08;;;;;;;10.07;5.05;;;5.70;61.50;;;;;;5065363;28;20090;-61
2022/04/11 06:49:38;;;;;;;10.13;4.75;;;5.70;61.60;;;;;;5065359;28;20029;-61
2022/04/11 06:52:05;;;;;;;20.17;7.00;;;5.70;61.70;;;;;;5066339;28;20017;-62
2022/04/11 06:54:30;;;;;;;14.68;8.82;;;5.70;61.60;;;;;;5074690;28;20547;-61
2022/04/11 06:56:56;;;;;;;15.95;9.05;;;5.70;61.60;;;;;;5052949;28;20089;-61
2022/04/11 06:59:22;;;;;;;17.25;9.68;;;5.80;61.80;;;;;;5045473;28;20036;-62
2022/04/11 07:01:48;;;;;;;18.55;11.20;;;5.80;62.00;;;;;;5059235;28;20060;-62
2022/04/11 07:04:14;;;;;;;16.67;10.38;;;5.90;62.30;;;;;;5045900;28;20031;-62
2022/04/11 07:06:39;;;;;;;16.17;9.68;;;6.10;62.60;;;;;;5070099;28;20029;-61
2022/04/11 07:09:05;;;;;;;13.07;7.78;;;6.20;62.50;;;;;;5063323;28;20036;-61
2022/04/11 07:11:31;;;;;;;13.07;7.18;;;6.40;62.30;;;;;;5052578;28;20033;-62
2022/04/11 07:13:57;;;;;;;11.93;7.45;;;6.50;62.10;;;;;;5051152;28;20336;-62
2022/04/11 07:16:24;;;;;;;13.93;7.15;;;6.70;61.80;;;;;;5055664;28;20369;-61
2022/04/11 07:18:50;;;;;;;18.75;7.72;;;6.80;62.40;;;;;;5080088;28;20032;-61
2022/04/11 07:21:17;;;;;;;15.73;7.30;;;6.90;61.60;;;;;;5056826;28;20030;-62
2022/04/11 07:23:42;;;;;;;14.35;6.57;;;7.10;61.60;;;;;;5066283;28;20512;-62
2022/04/11 07:26:08;;;;;;;12.38;6.90;;;7.30;61.50;;;;;;5067871;28;20021;-62
2022/04/11 07:28:34;;;;;;;12.00;6.70;;;7.50;61.50;;;;;;5068740;28;20043;-61
2022/04/11 07:31:00;;;;;;;10.48;6.93;;;7.70;61.30;;;;;;5061340;28;20021;-62
2022/04/11 07:33:25;;;;;;;12.20;6.72;;;7.90;61.00;;;;;;5070534;28;20052;-62
2022/04/11 07:35:51;;;;;;;10.00;5.97;;;8.10;60.70;;;;;;5065428;28;20024;-62
2022/04/11 07:38:17;;;;;;;9.45;6.15;;;8.30;60.50;;;;;;5068931;28;20041;-62
2022/04/11 07:40:42;;;;;;;8.70;6.03;;;8.50;60.40;;;;;;5065810;28;20116;-61
2022/04/11 07:43:08;;;;;;;9.75;5.60;;;8.60;60.20;;;;;;5070098;28;20018;-61
2022/04/11 07:45:33;;;;;;;9.10;5.53;;;8.80;60.50;;;;;;5060073;28;20084;-61
2022/04/11 07:47:59;;;;;;;7.18;5.22;;;9.00;59.80;;;;;;5073340;28;20017;-61
2022/04/11 07:50:25;;;;;;;7.35;5.70;;;9.20;59.50;;;;;;5054455;28;20029;-62
2022/04/11 07:52:51;;;;;;;12.32;7.22;;;9.40;59.30;;;;;;5068123;28;20040;-63
2022/04/11 07:55:16;;;;;;;9.38;6.32;;;9.50;59.10;;;;;;5064635;28;20075;-62
2022/04/11 07:57:42;;;;;;;10.13;6.15;;;9.70;58.70;;;;;;5075574;28;20028;-63
2022/04/11 08:00:09;;;;;;;12.98;6.38;;;9.80;58.40;;;;;;5052328;28;20052;-62
2022/04/11 08:02:35;;;;;;;10.63;5.82;;;10.00;58.20;;;;;;5062823;28;20179;-61
2022/04/11 08:05:02;;;;;;;11.00;5.93;;;10.10;58.00;;;;;;5082281;28;20033;-62
2022/04/11 08:07:32;;;;;;;8.98;5.03;;;10.30;57.80;;;;;;5072711;28;20059;-62
2022/04/11 08:09:58;;;;;;;8.55;5.45;;;10.40;57.40;;;;;;5073670;28;20120;-61
2022/04/11 08:12:24;;;;;;;6.05;4.63;;;10.60;57.30;;;;;;5075500;28;20092;-59
2022/04/11 08:14:50;;;;;;;9.57;4.97;;;10.70;57.00;;;;;;5081567;28;20029;-59
2022/04/11 08:17:15;;;;;;;5.18;3.95;;;10.80;56.70;;;;;;5080620;28;20025;-60
2022/04/11 08:19:41;;;;;;;7.13;4.32;;;10.90;56.50;;;;;;5076447;28;20059;-59
2022/04/11 08:22:06;;;;;;;6.15;4.35;;;11.10;56.50;;;;;;5078106;28;20041;-59
2022/04/11 08:24:32;;;;;;;5.90;4.10;;;11.20;56.00;;;;;;5082318;28;20032;-62
2022/04/11 08:26:58;;;;;;;7.55;5.20;;;11.40;55.90;;;;;;5081188;28;20020;-62
2022/04/11 08:29:28;;;;;;;6.28;4.15;;;11.40;55.60;;;;;;5079119;28;20048;-62
2022/04/11 08:31:53;;;;;;;8.02;3.92;;;11.60;55.40;;;;;;5075430;28;20076;-61
2022/04/11 08:34:19;;;;;;;5.25;4.30;;;11.70;55.30;;;;;;5079833;28;20050;-62
2022/04/11 08:36:45;;;;;;;6.45;4.07;;;11.80;55.30;;;;;;5081799;28;20053;-62
2022/04/11 08:39:11;;;;;;;6.80;3.88;;;12.00;55.20;;;;;;5078836;28;20020;-62
2022/04/11 08:41:37;;;;;;;5.32;3.70;;;12.10;55.00;;;;;;5073592;28;20106;-62
2022/04/11 08:44:05;;;;;;;5.40;3.83;;;12.20;54.60;;;;;;5078402;28;20070;-61
2022/04/11 08:46:32;;;;;;;5.93;3.97;;;12.30;54.20;;;;;;5080673;28;20078;-61
2022/04/11 08:49:03;;;;;;;5.05;3.70;;;12.40;53.90;;;;;;5079972;28;20104;-62
2022/04/11 08:51:33;;;;;;;5.85;3.70;;;12.50;53.80;;;;;;5070363;28;20074;-61
2022/04/11 08:54:04;;;;;;;6.32;3.90;;;12.60;53.50;;;;;;5083916;28;20024;-62
2022/04/11 08:56:30;;;;;;;7.40;3.60;;;12.70;53.50;;;;;;5080687;28;20051;-61
2022/04/11 08:58:56;;;;;;;6.45;3.42;;;12.90;53.40;;;;;;5081466;28;20028;-61
2022/04/11 09:01:23;;;;;;;6.63;3.40;;;13.00;53.30;;;;;;5080975;28;20048;-62
2022/04/11 09:03:49;;;;;;;6.65;3.53;;;13.10;53.20;;;;;;5073169;28;20033;-62
2022/04/11 09:06:15;;;;;;;5.93;3.13;;;13.30;53.30;;;;;;5076438;28;20052;-62
2022/04/11 09:08:40;;;;;;;5.60;3.40;;;13.40;52.90;;;;;;5079309;28;20025;-60
2022/04/11 09:11:07;;;;;;;7.25;3.42;;;13.60;52.00;;;;;;5066799;28;20024;-59
2022/04/11 09:13:50;;;;;;;5.18;3.17;;;13.70;52.00;;;;;;5065830;28;20028;-60
2022/04/11 09:16:16;;;;;;;4.40;3.10;;;13.80;51.60;;;;;;5063246;28;20074;-64
2022/04/11 09:18:48;;;;;;;5.70;3.42;;;13.90;51.80;;;;;;5066427;28;20382;-62
2022/04/11 09:21:14;;;;;;;5.63;3.22;;;13.90;51.30;;;;;;5064964;28;20021;-62
2022/04/11 09:23:40;;;;;;;4.53;3.28;;;14.00;51.40;;;;;;5069637;28;20059;-62
2022/04/11 09:26:15;;;;;;;3.83;2.95;;;14.10;51.20;;;;;;5061171;28;20033;-62
2022/04/11 09:28:41;;;;;;;4.68;3.10;;;14.20;49.80;;;;;;5075974;28;20071;-62
2022/04/11 09:31:07;;;;;;;5.93;3.03;;;14.30;50.80;;;;;;5067915;28;20081;-62
2022/04/11 09:33:40;;;;;;;4.13;2.88;;;14.40;50.60;;;;;;5061831;28;20438;-62
2022/04/11 09:36:06;;;;;;;3.88;2.92;;;14.50;50.00;;;;;;5063488;28;20017;-62
2022/04/11 09:38:37;;;;;;;5.03;3.15;;;14.60;50.00;;;;;;5085201;28;20044;-62
2022/04/11 09:41:03;;;;;;;5.13;3.05;;;14.70;49.50;;;;;;5061819;28;20044;-62
2022/04/11 09:43:31;;;;;;;5.03;3.05;;;14.80;49.50;;;;;;5072870;28;20394;-62
2022/04/11 09:46:00;;;;;;;4.20;2.90;;;14.80;49.30;;;;;;5062222;28;20081;-62
2022/04/11 09:48:32;;;;;;;4.47;2.78;;;14.90;49.30;;;;;;5058606;28;20045;-61
2022/04/11 09:51:00;;;;;;;5.88;3.17;;;15.00;49.10;;;;;;5061122;28;20025;-63
2022/04/11 09:53:34;;;;;;;5.93;3.22;;;15.10;49.20;;;;;;5066013;28;20044;-62
2022/04/11 09:56:05;;;;;;;6.03;3.25;;;15.20;49.30;;;;;;5060117;28;20037;-59
2022/04/11 09:58:36;;;;;;;8.02;2.95;;;15.30;49.50;;;;;;5046145;28;20021;-59
2022/04/11 10:01:03;;;;;;;6.50;3.03;;;15.30;49.10;;;;;;5054126;28;20043;-63
2022/04/11 10:03:30;;;;;;;6.68;3.53;;;15.40;49.00;;;;;;5061797;28;20030;-61
2022/04/11 10:05:57;;;;;;;3.55;3.00;;;15.50;48.60;;;;;;5061530;28;20025;-59
2022/04/11 10:08:27;;;;;;;5.78;3.47;;;15.50;48.60;;;;;;5074526;28;20020;-62
2022/04/11 10:10:54;;;;;;;5.80;2.97;;;15.60;48.30;;;;;;5060788;28;20032;-62
2022/04/11 10:13:20;;;;;;;5.55;2.88;;;15.60;48.70;;;;;;5066108;28;20031;-62
2022/04/11 10:15:48;;;;;;;5.60;2.92;;;15.80;48.30;;;;;;5066715;28;20393;-62
2022/04/11 10:18:21;;;;;;;3.90;2.75;;;15.80;47.40;;;;;;5066661;28;20058;-62
2022/04/11 10:20:50;;;;;;;4.15;2.80;;;15.90;47.70;;;;;;5059924;28;20037;-61
2022/04/11 10:23:31;;;;;;;3.03;2.08;;;15.90;47.70;;;;;;5066140;28;20371;-62
2022/04/11 10:26:03;;;;;;;3.95;2.40;;;15.90;46.30;;;;;;5065811;28;20096;-62
2022/04/11 10:28:29;;;;;;;4.22;2.38;;;16.00;45.90;;;;;;5063767;28;20026;-62
2022/04/11 10:31:09;;;;;;;3.30;2.03;;;16.00;45.60;;;;;;5064346;28;20052;-62
2022/04/11 10:33:49;;;;;;;3.67;2.13;;;16.10;45.70;;;;;;5056902;28;20040;-62
2022/04/11 10:36:35;;;;;;;5.18;1.95;;;16.10;44.60;;;;;;5066439;28;20025;-62
2022/04/11 10:39:16;;;;;;;3.75;2.67;;;16.20;45.10;;;;;;5047939;28;20390;-62
2022/04/11 10:42:12;;;;;;;4.95;2.35;;;16.20;45.10;;;;;;5064072;28;20048;-62
2022/04/11 10:44:53;;;;;;;4.05;2.33;;;16.30;44.10;;;;;;5040552;28;20087;-62
2022/04/11 10:47:21;;;;;;;4.07;2.55;;;16.40;45.00;;;;;;5052414;28;20040;-63
2022/04/11 10:49:55;;;;;;;3.85;2.30;;;16.40;44.50;;;;;;5064109;28;20060;-63
2022/04/11 10:52:31;;;;;;;6.40;2.90;;;16.40;44.90;;;;;;5060118;28;20501;-63
2022/04/11 10:55:18;;;;;;;5.68;3.08;;;16.50;45.20;;;;;;5062180;28;20056;-61
2022/04/11 10:57:48;;;;;;;2.50;2.15;;;16.60;45.50;;;;;;5064464;28;20048;-62
2022/04/11 11:00:19;;;;;;;4.47;2.90;;;16.60;46.00;;;;;;5053163;28;20175;-62
2022/04/11 11:02:51;;;;;;;4.07;2.72;;;16.70;45.60;;;;;;5054177;28;20540;-63
2022/04/11 11:05:29;;;;;;;5.68;2.75;;;16.80;45.10;;;;;;5064412;28;20120;-64
2022/04/11 11:08:09;;;;;;;9.88;2.60;;;16.90;44.30;;;;;;5072711;28;20032;-62
2022/04/11 11:10:56;;;;;;;3.38;2.50;;;16.90;44.40;;;;;;5060567;28;20364;-62
2022/04/11 11:13:41;;;;;;;2.70;2.15;;;17.00;45.00;;;;;;5079214;28;20482;-63
2022/04/11 11:16:07;;;;;;;3.25;2.40;;;17.10;44.30;;;;;;5084173;28;20552;-62
2022/04/11 11:18:51;;;;;;;3.53;2.17;;;17.20;45.30;;;;;;5078917;28;20028;-62
2022/04/11 11:21:20;;;;;;;3.00;2.30;;;17.20;43.40;;;;;;5081345;28;20033;-63
2022/04/11 11:24:12;;;;;;;4.53;3.03;;;17.40;45.00;;;;;;5080934;28;20028;-62
2022/04/11 11:26:52;;;;;;;3.17;2.30;;;17.50;43.40;;;;;;5067424;28;20459;-62
2022/04/11 11:29:21;;;;;;;7.18;2.60;;;17.60;43.10;;;;;;5073841;28;20058;-62
2022/04/11 11:31:49;;;;;;;4.43;2.10;;;17.70;44.00;;;;;;5079375;28;20135;-61
2022/04/11 11:34:19;;;;;;;4.47;2.30;;;17.70;43.20;;;;;;5075983;28;20028;-62
2022/04/11 11:36:46;;;;;;;3.30;2.25;;;17.70;43.60;;;;;;5069393;28;20075;-62
2022/04/11 11:39:17;;;;;;;5.78;2.45;;;17.80;42.30;;;;;;5078644;28;20028;-62
2022/04/11 11:41:47;;;;;;;2.60;2.30;;;17.80;42.90;;;;;;5081609;28;20036;-62
2022/04/11 11:44:13;;;;;;;3.13;2.13;;;17.80;42.70;;;;;;5076806;28;20067;-63
2022/04/11 11:47:02;;;;;;;5.70;2.78;;;17.80;43.20;;;;;;5084836;28;20029;-63
2022/04/11 11:49:36;;;;;;;3.13;2.40;;;17.90;41.90;;;;;;5073018;28;20028;-62
2022/04/11 11:52:02;;;;;;;7.22;2.20;;;18.00;43.30;;;;;;5074477;28;20028;-60
2022/04/11 11:54:36;;;;;;;6.22;2.70;;;18.00;42.50;;;;;;5079883;28;20032;-60
2022/04/11 11:57:02;;;;;;;2.50;2.30;;;18.00;42.40;;;;;;5078831;28;20067;-62
2022/04/11 11:59:28;;;;;;;2.90;2.20;;;18.10;42.60;;;;;;5083261;28;20488;-64
2022/04/11 12:04:39;;;;;;;;;;;18.30;42.90;;;;;;5083155;28;20062;-63
2022/04/11 12:07:05;;;;;;;8.98;2.35;;;18.30;43.40;;;;;;5058283;28;20056;-62
2022/04/11 12:09:41;;;;;;;6.07;2.25;;;18.40;42.60;;;;;;5079713;28;20043;-62
2022/04/11 12:12:08;;;;;;;6.45;2.50;;;18.50;41.80;;;;;;5078862;28;20051;-62
2022/04/11 12:15:02;;;;;;;3.30;2.30;;;18.50;42.10;;;;;;5080486;28;20087;-62
2022/04/11 12:17:39;;;;;;;3.13;2.20;;;18.60;41.30;;;;;;5073141;28;20040;-62
2022/04/11 12:20:17;;;;;;;4.03;2.55;;;18.60;41.60;;;;;;5074443;28;20035;-62
2022/04/11 12:23:01;;;;;;;6.05;2.20;;;18.60;41.70;;;;;;5071271;28;20029;-63
2022/04/11 12:25:29;;;;;;;3.50;2.20;;;18.60;42.00;;;;;;5058449;28;20021;-62
2022/04/11 12:28:23;;;;;;;3.10;2.30;;;18.70;41.70;;;;;;5080167;28;20047;-62
2022/04/11 12:31:07;;;;;;;3.47;2.23;;;18.80;41.10;;;;;;5069370;28;20036;-63
2022/04/11 12:33:49;;;;;;;4.75;2.35;;;18.90;41.10;;;;;;5061517;28;20306;-62
2022/04/11 12:36:23;;;;;;;5.68;2.63;;;19.00;40.80;;;;;;5061381;28;20013;-62
2022/04/11 12:38:49;;;;;;;;;;;19.10;41.20;;;;;;5064668;28;20505;-62
2022/04/11 12:41:36;;;;;;;3.40;2.22;;;19.10;41.60;;;;;;5066694;28;19916;-62
2022/04/11 12:44:09;;;;;;;3.33;2.22;;;19.20;41.20;;;;;;5046918;28;20061;-62
2022/04/11 12:46:39;;;;;;;3.20;2.13;;;19.20;40.10;;;;;;5065827;28;20056;-62
2022/04/11 12:49:06;;;;;;;3.67;2.28;;;19.30;40.70;;;;;;5059500;28;20391;-63
2022/04/11 12:51:32;;;;;;;4.43;2.33;;;19.30;41.20;;;;;;5054348;28;20032;-62
2022/04/11 12:54:16;;;;;;;4.05;2.28;;;19.30;40.30;;;;;;5064544;28;20030;-62
2022/04/11 12:56:43;;;;;;;2.75;2.03;;;19.40;40.00;;;;;;5064637;28;20036;-62
2022/04/11 12:59:10;;;;;;;6.38;2.47;;;19.40;40.20;;;;;;5074278;28;20057;-62